KLSF

Lawson AAF (Fort Benning) Airport

Fort Benning(Columbus), Georgia, USA
METAR KLSF 211456Z AUTO 32008KT 10SM CLR 01/M08 A3041 RMK AO2 SLP305 T00071076 52025
Observed Flight Rules
Jan-21 @ 14:56 UTC (an hour ago) Visual Flight Rules
Wind Visibility Clouds
320° at 8 knots 10 miles
  • Clear skies
Temperatures Readings
Current 1°C / 34°F
Dewpoint -8°C / 18°F
Humidity 51%
Altimeter 30.41" Hg
Pressure 1030.5 hPa
Elevation 71
METAR KLSF 211456Z AUTO 32008KT 10SM CLR 01/M08 A3041 RMK AO2 SLP305 T00071076 52025
Observed Flight Rules
Jan-21 @ 14:56 UTC
(an hour ago)
VFR
Wind Visibility
320° at 8 knots 10 miles
Clouds
  • Clear skies
Temperature Dewpoint
1°C / 34°F -8°C / 18°F
Humidity Altimeter Pressure
51% 30.41" Hg 1030.5 hPa